sensor_id;sensor_type;location;lat;lon;timestamp;P1;durP1;ratioP1;P2;durP2;ratioP2
19006;SDS011;9636;47.382;8.480;2022-12-07T00:00:16;17.10;;;10.03;;
19006;SDS011;9636;47.382;8.480;2022-12-07T00:02:43;16.23;;;9.13;;
19006;SDS011;9636;47.382;8.480;2022-12-07T00:05:10;16.77;;;10.10;;
19006;SDS011;9636;47.382;8.480;2022-12-07T00:07:37;16.30;;;9.60;;
19006;SDS011;9636;47.382;8.480;2022-12-07T00:10:05;17.77;;;9.53;;
19006;SDS011;9636;47.382;8.480;2022-12-07T00:12:34;16.70;;;9.10;;
19006;SDS011;9636;47.382;8.480;2022-12-07T00:15:01;14.57;;;9.33;;
19006;SDS011;9636;47.382;8.480;2022-12-07T00:17:28;16.73;;;9.37;;
19006;SDS011;9636;47.382;8.480;2022-12-07T00:19:55;18.67;;;8.97;;
19006;SDS011;9636;47.382;8.480;2022-12-07T00:22:22;13.73;;;7.97;;
19006;SDS011;9636;47.382;8.480;2022-12-07T00:24:50;15.70;;;9.07;;
19006;SDS011;9636;47.382;8.480;2022-12-07T00:27:17;14.03;;;8.67;;
19006;SDS011;9636;47.382;8.480;2022-12-07T00:29:45;16.40;;;9.27;;
19006;SDS011;9636;47.382;8.480;2022-12-07T00:32:12;13.07;;;8.57;;
19006;SDS011;9636;47.382;8.480;2022-12-07T00:34:39;12.63;;;8.20;;
19006;SDS011;9636;47.382;8.480;2022-12-07T00:37:07;13.70;;;9.00;;
19006;SDS011;9636;47.382;8.480;2022-12-07T00:39:34;15.93;;;9.57;;
19006;SDS011;9636;47.382;8.480;2022-12-07T00:42:01;14.70;;;8.83;;
19006;SDS011;9636;47.382;8.480;2022-12-07T00:44:28;14.03;;;8.80;;
19006;SDS011;9636;47.382;8.480;2022-12-07T00:46:57;15.37;;;8.53;;
19006;SDS011;9636;47.382;8.480;2022-12-07T00:49:24;13.83;;;8.57;;
19006;SDS011;9636;47.382;8.480;2022-12-07T00:51:51;15.83;;;9.27;;
19006;SDS011;9636;47.382;8.480;2022-12-07T00:54:18;15.40;;;9.23;;
19006;SDS011;9636;47.382;8.480;2022-12-07T00:56:45;15.10;;;8.13;;
19006;SDS011;9636;47.382;8.480;2022-12-07T00:59:13;13.77;;;8.70;;
19006;SDS011;9636;47.382;8.480;2022-12-07T01:01:40;14.30;;;8.57;;
19006;SDS011;9636;47.382;8.480;2022-12-07T01:04:09;12.70;;;8.77;;
19006;SDS011;9636;47.382;8.480;2022-12-07T01:06:36;15.27;;;8.43;;
19006;SDS011;9636;47.382;8.480;2022-12-07T01:09:03;12.83;;;8.57;;
19006;SDS011;9636;47.382;8.480;2022-12-07T01:11:31;13.20;;;8.40;;
19006;SDS011;9636;47.382;8.480;2022-12-07T01:13:59;14.60;;;8.27;;
19006;SDS011;9636;47.382;8.480;2022-12-07T01:16:27;12.70;;;8.40;;
19006;SDS011;9636;47.382;8.480;2022-12-07T01:18:55;13.63;;;8.37;;
19006;SDS011;9636;47.382;8.480;2022-12-07T01:21:24;13.43;;;8.07;;
19006;SDS011;9636;47.382;8.480;2022-12-07T01:23:52;11.87;;;7.80;;
19006;SDS011;9636;47.382;8.480;2022-12-07T01:26:20;12.73;;;8.13;;
19006;SDS011;9636;47.382;8.480;2022-12-07T01:28:48;12.80;;;8.33;;
19006;SDS011;9636;47.382;8.480;2022-12-07T01:31:15;13.30;;;8.20;;
19006;SDS011;9636;47.382;8.480;2022-12-07T01:33:44;13.03;;;8.60;;
19006;SDS011;9636;47.382;8.480;2022-12-07T01:36:13;12.17;;;7.80;;
19006;SDS011;9636;47.382;8.480;2022-12-07T01:38:41;12.63;;;8.13;;
19006;SDS011;9636;47.382;8.480;2022-12-07T01:41:09;12.73;;;8.10;;
19006;SDS011;9636;47.382;8.480;2022-12-07T01:43:36;13.93;;;8.30;;
19006;SDS011;9636;47.382;8.480;2022-12-07T01:46:04;13.47;;;7.63;;
19006;SDS011;9636;47.382;8.480;2022-12-07T01:48:32;12.53;;;8.07;;
19006;SDS011;9636;47.382;8.480;2022-12-07T01:51:00;11.60;;;7.90;;
19006;SDS011;9636;47.382;8.480;2022-12-07T01:53:28;14.23;;;7.97;;
19006;SDS011;9636;47.382;8.480;2022-12-07T01:55:57;13.53;;;7.87;;
19006;SDS011;9636;47.382;8.480;2022-12-07T01:58:25;10.80;;;7.50;;
19006;SDS011;9636;47.382;8.480;2022-12-07T02:00:52;13.00;;;8.03;;
19006;SDS011;9636;47.382;8.480;2022-12-07T02:03:20;14.23;;;8.17;;
19006;SDS011;9636;47.382;8.480;2022-12-07T02:05:48;12.50;;;7.47;;
19006;SDS011;9636;47.382;8.480;2022-12-07T02:08:16;12.93;;;7.73;;
19006;SDS011;9636;47.382;8.480;2022-12-07T02:10:43;11.87;;;7.60;;
19006;SDS011;9636;47.382;8.480;2022-12-07T02:13:12;13.47;;;7.90;;
19006;SDS011;9636;47.382;8.480;2022-12-07T02:15:57;11.30;;;6.90;;
19006;SDS011;9636;47.382;8.480;2022-12-07T02:18:30;11.53;;;7.33;;
19006;SDS011;9636;47.382;8.480;2022-12-07T02:21:00;11.13;;;7.43;;
19006;SDS011;9636;47.382;8.480;2022-12-07T02:23:39;12.93;;;8.03;;
19006;SDS011;9636;47.382;8.480;2022-12-07T02:26:13;12.63;;;8.03;;
19006;SDS011;9636;47.382;8.480;2022-12-07T02:28:51;10.90;;;7.63;;
19006;SDS011;9636;47.382;8.480;2022-12-07T02:31:20;10.70;;;7.40;;
19006;SDS011;9636;47.382;8.480;2022-12-07T02:33:49;12.07;;;7.50;;
19006;SDS011;9636;47.382;8.480;2022-12-07T02:36:20;11.03;;;7.37;;
19006;SDS011;9636;47.382;8.480;2022-12-07T02:38:51;12.03;;;7.50;;
19006;SDS011;9636;47.382;8.480;2022-12-07T02:41:24;11.27;;;7.23;;
19006;SDS011;9636;47.382;8.480;2022-12-07T02:43:54;10.67;;;7.03;;
19006;SDS011;9636;47.382;8.480;2022-12-07T02:46:22;11.87;;;7.60;;
19006;SDS011;9636;47.382;8.480;2022-12-07T02:48:51;11.33;;;7.70;;
19006;SDS011;9636;47.382;8.480;2022-12-07T02:51:18;11.67;;;7.43;;
19006;SDS011;9636;47.382;8.480;2022-12-07T02:53:45;10.20;;;6.93;;
19006;SDS011;9636;47.382;8.480;2022-12-07T02:56:13;10.17;;;7.17;;
19006;SDS011;9636;47.382;8.480;2022-12-07T02:58:47;12.00;;;7.37;;
19006;SDS011;9636;47.382;8.480;2022-12-07T03:01:20;11.27;;;7.50;;
19006;SDS011;9636;47.382;8.480;2022-12-07T03:03:53;11.53;;;7.27;;
19006;SDS011;9636;47.382;8.480;2022-12-07T03:06:26;11.37;;;7.10;;
19006;SDS011;9636;47.382;8.480;2022-12-07T03:08:56;11.53;;;7.43;;
19006;SDS011;9636;47.382;8.480;2022-12-07T03:11:25;11.47;;;7.27;;
19006;SDS011;9636;47.382;8.480;2022-12-07T03:13:59;13.37;;;6.93;;
19006;SDS011;9636;47.382;8.480;2022-12-07T03:16:30;11.00;;;7.40;;
19006;SDS011;9636;47.382;8.480;2022-12-07T03:18:59;10.93;;;6.87;;
19006;SDS011;9636;47.382;8.480;2022-12-07T03:21:27;11.13;;;6.73;;
19006;SDS011;9636;47.382;8.480;2022-12-07T03:23:57;10.43;;;7.10;;
19006;SDS011;9636;47.382;8.480;2022-12-07T03:26:28;11.30;;;7.07;;
19006;SDS011;9636;47.382;8.480;2022-12-07T03:28:58;11.90;;;7.63;;
19006;SDS011;9636;47.382;8.480;2022-12-07T03:31:28;9.80;;;6.60;;
19006;SDS011;9636;47.382;8.480;2022-12-07T03:33:58;11.47;;;7.27;;
19006;SDS011;9636;47.382;8.480;2022-12-07T03:36:28;9.20;;;6.60;;
19006;SDS011;9636;47.382;8.480;2022-12-07T03:38:57;8.80;;;6.47;;
19006;SDS011;9636;47.382;8.480;2022-12-07T03:41:25;11.17;;;6.80;;
19006;SDS011;9636;47.382;8.480;2022-12-07T03:43:53;9.87;;;6.40;;
19006;SDS011;9636;47.382;8.480;2022-12-07T03:46:24;11.37;;;6.63;;
19006;SDS011;9636;47.382;8.480;2022-12-07T03:48:55;9.67;;;6.43;;
19006;SDS011;9636;47.382;8.480;2022-12-07T03:51:27;10.20;;;6.70;;
19006;SDS011;9636;47.382;8.480;2022-12-07T03:53:57;9.33;;;6.27;;
19006;SDS011;9636;47.382;8.480;2022-12-07T03:56:25;8.73;;;5.90;;
19006;SDS011;9636;47.382;8.480;2022-12-07T03:58:53;9.33;;;6.40;;
19006;SDS011;9636;47.382;8.480;2022-12-07T04:01:22;8.60;;;5.90;;
19006;SDS011;9636;47.382;8.480;2022-12-07T04:03:49;9.00;;;6.03;;
19006;SDS011;9636;47.382;8.480;2022-12-07T04:06:16;7.80;;;5.90;;
19006;SDS011;9636;47.382;8.480;2022-12-07T04:08:45;7.93;;;6.20;;
19006;SDS011;9636;47.382;8.480;2022-12-07T04:11:12;8.07;;;5.63;;
19006;SDS011;9636;47.382;8.480;2022-12-07T04:13:39;8.27;;;5.63;;
19006;SDS011;9636;47.382;8.480;2022-12-07T04:16:24;8.27;;;5.80;;
19006;SDS011;9636;47.382;8.480;2022-12-07T04:18:51;7.27;;;5.57;;
19006;SDS011;9636;47.382;8.480;2022-12-07T04:21:18;7.70;;;5.30;;
19006;SDS011;9636;47.382;8.480;2022-12-07T04:23:46;7.67;;;5.23;;
19006;SDS011;9636;47.382;8.480;2022-12-07T04:26:14;7.20;;;5.60;;
19006;SDS011;9636;47.382;8.480;2022-12-07T04:28:41;7.67;;;5.77;;
19006;SDS011;9636;47.382;8.480;2022-12-07T04:31:08;7.47;;;5.37;;
19006;SDS011;9636;47.382;8.480;2022-12-07T04:33:35;6.27;;;4.93;;
19006;SDS011;9636;47.382;8.480;2022-12-07T04:36:02;7.93;;;5.10;;
19006;SDS011;9636;47.382;8.480;2022-12-07T04:38:30;6.83;;;5.07;;
19006;SDS011;9636;47.382;8.480;2022-12-07T04:40:58;7.27;;;4.93;;
19006;SDS011;9636;47.382;8.480;2022-12-07T04:43:30;7.03;;;4.80;;
19006;SDS011;9636;47.382;8.480;2022-12-07T04:45:57;7.33;;;5.30;;
19006;SDS011;9636;47.382;8.480;2022-12-07T04:48:25;6.07;;;4.70;;
19006;SDS011;9636;47.382;8.480;2022-12-07T04:50:52;7.50;;;5.10;;
19006;SDS011;9636;47.382;8.480;2022-12-07T04:53:19;8.33;;;5.37;;
19006;SDS011;9636;47.382;8.480;2022-12-07T04:55:46;7.30;;;4.90;;
19006;SDS011;9636;47.382;8.480;2022-12-07T04:58:15;6.00;;;4.77;;
19006;SDS011;9636;47.382;8.480;2022-12-07T05:00:42;6.50;;;4.90;;
19006;SDS011;9636;47.382;8.480;2022-12-07T05:03:09;6.33;;;4.73;;
19006;SDS011;9636;47.382;8.480;2022-12-07T05:05:36;5.70;;;4.83;;
19006;SDS011;9636;47.382;8.480;2022-12-07T05:08:06;6.57;;;4.80;;
19006;SDS011;9636;47.382;8.480;2022-12-07T05:10:33;6.43;;;5.00;;
19006;SDS011;9636;47.382;8.480;2022-12-07T05:13:00;5.57;;;4.63;;
19006;SDS011;9636;47.382;8.480;2022-12-07T05:15:29;5.07;;;4.13;;
19006;SDS011;9636;47.382;8.480;2022-12-07T05:17:56;6.23;;;4.70;;
19006;SDS011;9636;47.382;8.480;2022-12-07T05:20:23;6.50;;;4.63;;
19006;SDS011;9636;47.382;8.480;2022-12-07T05:22:50;5.50;;;4.20;;
19006;SDS011;9636;47.382;8.480;2022-12-07T05:25:17;5.23;;;4.07;;
19006;SDS011;9636;47.382;8.480;2022-12-07T05:27:44;6.70;;;4.53;;
19006;SDS011;9636;47.382;8.480;2022-12-07T05:30:12;5.13;;;4.10;;
19006;SDS011;9636;47.382;8.480;2022-12-07T05:32:40;7.27;;;4.47;;
19006;SDS011;9636;47.382;8.480;2022-12-07T05:35:08;5.23;;;4.43;;
19006;SDS011;9636;47.382;8.480;2022-12-07T05:37:35;5.37;;;4.23;;
19006;SDS011;9636;47.382;8.480;2022-12-07T05:40:02;5.87;;;3.73;;
19006;SDS011;9636;47.382;8.480;2022-12-07T05:42:30;6.80;;;4.50;;
19006;SDS011;9636;47.382;8.480;2022-12-07T05:44:57;5.77;;;4.10;;
19006;SDS011;9636;47.382;8.480;2022-12-07T05:47:24;5.53;;;4.40;;
19006;SDS011;9636;47.382;8.480;2022-12-07T05:49:52;6.03;;;4.63;;
19006;SDS011;9636;47.382;8.480;2022-12-07T05:52:19;5.83;;;4.47;;
19006;SDS011;9636;47.382;8.480;2022-12-07T05:54:47;6.33;;;4.30;;
19006;SDS011;9636;47.382;8.480;2022-12-07T05:57:14;6.97;;;4.43;;
19006;SDS011;9636;47.382;8.480;2022-12-07T05:59:41;4.80;;;3.90;;
19006;SDS011;9636;47.382;8.480;2022-12-07T06:02:07;5.17;;;4.50;;
19006;SDS011;9636;47.382;8.480;2022-12-07T06:04:35;4.73;;;3.90;;
19006;SDS011;9636;47.382;8.480;2022-12-07T06:07:04;5.03;;;3.90;;
19006;SDS011;9636;47.382;8.480;2022-12-07T06:09:32;6.57;;;4.50;;
19006;SDS011;9636;47.382;8.480;2022-12-07T06:11:59;4.60;;;3.97;;
19006;SDS011;9636;47.382;8.480;2022-12-07T06:14:44;5.03;;;4.10;;
19006;SDS011;9636;47.382;8.480;2022-12-07T06:17:12;5.80;;;4.20;;
19006;SDS011;9636;47.382;8.480;2022-12-07T06:19:39;4.93;;;4.10;;
19006;SDS011;9636;47.382;8.480;2022-12-07T06:22:08;5.40;;;3.90;;
19006;SDS011;9636;47.382;8.480;2022-12-07T06:24:36;5.23;;;4.20;;
19006;SDS011;9636;47.382;8.480;2022-12-07T06:27:04;5.73;;;4.20;;
19006;SDS011;9636;47.382;8.480;2022-12-07T06:29:31;5.10;;;3.93;;
19006;SDS011;9636;47.382;8.480;2022-12-07T06:31:58;6.03;;;4.47;;
19006;SDS011;9636;47.382;8.480;2022-12-07T06:34:26;6.20;;;4.47;;
19006;SDS011;9636;47.382;8.480;2022-12-07T06:36:53;6.23;;;4.53;;
19006;SDS011;9636;47.382;8.480;2022-12-07T06:39:22;5.30;;;3.87;;
19006;SDS011;9636;47.382;8.480;2022-12-07T06:41:50;5.30;;;4.40;;
19006;SDS011;9636;47.382;8.480;2022-12-07T06:44:18;4.80;;;3.90;;
19006;SDS011;9636;47.382;8.480;2022-12-07T06:46:45;6.67;;;4.40;;
19006;SDS011;9636;47.382;8.480;2022-12-07T06:49:12;5.20;;;3.97;;
19006;SDS011;9636;47.382;8.480;2022-12-07T06:51:39;5.70;;;4.07;;
19006;SDS011;9636;47.382;8.480;2022-12-07T06:54:07;5.40;;;4.00;;
19006;SDS011;9636;47.382;8.480;2022-12-07T06:56:35;4.70;;;3.90;;
19006;SDS011;9636;47.382;8.480;2022-12-07T06:59:03;5.80;;;4.40;;
19006;SDS011;9636;47.382;8.480;2022-12-07T07:01:31;5.80;;;4.07;;
19006;SDS011;9636;47.382;8.480;2022-12-07T07:04:00;5.63;;;3.93;;
19006;SDS011;9636;47.382;8.480;2022-12-07T07:06:27;4.73;;;3.90;;
19006;SDS011;9636;47.382;8.480;2022-12-07T07:08:54;5.00;;;4.03;;
19006;SDS011;9636;47.382;8.480;2022-12-07T07:11:21;4.43;;;3.70;;
19006;SDS011;9636;47.382;8.480;2022-12-07T07:13:50;4.70;;;3.97;;
19006;SDS011;9636;47.382;8.480;2022-12-07T07:16:17;5.30;;;3.70;;
19006;SDS011;9636;47.382;8.480;2022-12-07T07:18:44;5.03;;;3.73;;
19006;SDS011;9636;47.382;8.480;2022-12-07T07:21:11;5.67;;;3.80;;
19006;SDS011;9636;47.382;8.480;2022-12-07T07:23:38;5.13;;;3.93;;
19006;SDS011;9636;47.382;8.480;2022-12-07T07:26:05;4.83;;;3.60;;
19006;SDS011;9636;47.382;8.480;2022-12-07T07:28:32;4.70;;;3.83;;
19006;SDS011;9636;47.382;8.480;2022-12-07T07:31:01;4.17;;;3.77;;
19006;SDS011;9636;47.382;8.480;2022-12-07T07:33:28;4.47;;;3.43;;
19006;SDS011;9636;47.382;8.480;2022-12-07T07:35:55;5.47;;;3.90;;
19006;SDS011;9636;47.382;8.480;2022-12-07T07:38:22;4.67;;;3.80;;
19006;SDS011;9636;47.382;8.480;2022-12-07T07:40:49;5.60;;;3.83;;
19006;SDS011;9636;47.382;8.480;2022-12-07T07:43:17;5.50;;;3.80;;
19006;SDS011;9636;47.382;8.480;2022-12-07T07:45:44;5.60;;;3.93;;
19006;SDS011;9636;47.382;8.480;2022-12-07T07:48:12;5.40;;;3.80;;
19006;SDS011;9636;47.382;8.480;2022-12-07T07:50:39;5.47;;;3.50;;
19006;SDS011;9636;47.382;8.480;2022-12-07T07:53:07;4.60;;;3.57;;
19006;SDS011;9636;47.382;8.480;2022-12-07T07:55:34;6.50;;;3.93;;
19006;SDS011;9636;47.382;8.480;2022-12-07T07:58:01;4.57;;;3.60;;
19006;SDS011;9636;47.382;8.480;2022-12-07T08:00:28;5.00;;;3.60;;
19006;SDS011;9636;47.382;8.480;2022-12-07T08:02:55;5.93;;;4.17;;
19006;SDS011;9636;47.382;8.480;2022-12-07T08:05:24;5.10;;;4.10;;
19006;SDS011;9636;47.382;8.480;2022-12-07T08:07:51;4.80;;;4.07;;
19006;SDS011;9636;47.382;8.480;2022-12-07T08:10:18;5.07;;;4.07;;
19006;SDS011;9636;47.382;8.480;2022-12-07T08:12:45;5.07;;;3.80;;
19006;SDS011;9636;47.382;8.480;2022-12-07T08:15:30;5.97;;;3.40;;
19006;SDS011;9636;47.382;8.480;2022-12-07T08:17:57;5.10;;;3.90;;
19006;SDS011;9636;47.382;8.480;2022-12-07T08:20:26;4.97;;;3.67;;
19006;SDS011;9636;47.382;8.480;2022-12-07T08:22:53;4.83;;;3.63;;
19006;SDS011;9636;47.382;8.480;2022-12-07T08:25:20;6.63;;;4.77;;
19006;SDS011;9636;47.382;8.480;2022-12-07T08:27:48;5.17;;;3.90;;
19006;SDS011;9636;47.382;8.480;2022-12-07T08:30:15;4.37;;;3.60;;
19006;SDS011;9636;47.382;8.480;2022-12-07T08:32:43;5.57;;;3.83;;
19006;SDS011;9636;47.382;8.480;2022-12-07T08:35:10;5.63;;;3.93;;
19006;SDS011;9636;47.382;8.480;2022-12-07T08:37:39;4.93;;;3.80;;
19006;SDS011;9636;47.382;8.480;2022-12-07T08:40:07;6.10;;;4.33;;
19006;SDS011;9636;47.382;8.480;2022-12-07T08:42:35;5.67;;;4.20;;
19006;SDS011;9636;47.382;8.480;2022-12-07T08:45:05;4.87;;;3.90;;
19006;SDS011;9636;47.382;8.480;2022-12-07T08:47:32;6.00;;;4.07;;
19006;SDS011;9636;47.382;8.480;2022-12-07T08:50:00;6.30;;;3.90;;
19006;SDS011;9636;47.382;8.480;2022-12-07T08:52:28;5.40;;;4.00;;
19006;SDS011;9636;47.382;8.480;2022-12-07T08:54:57;4.87;;;3.80;;
19006;SDS011;9636;47.382;8.480;2022-12-07T08:57:25;5.03;;;3.80;;
19006;SDS011;9636;47.382;8.480;2022-12-07T08:59:53;5.80;;;4.07;;
19006;SDS011;9636;47.382;8.480;2022-12-07T09:02:20;4.57;;;3.60;;
19006;SDS011;9636;47.382;8.480;2022-12-07T09:04:47;6.20;;;3.93;;
19006;SDS011;9636;47.382;8.480;2022-12-07T09:07:14;5.53;;;3.90;;
19006;SDS011;9636;47.382;8.480;2022-12-07T09:09:41;4.40;;;3.57;;
19006;SDS011;9636;47.382;8.480;2022-12-07T09:12:10;7.27;;;4.50;;
19006;SDS011;9636;47.382;8.480;2022-12-07T09:14:37;5.57;;;4.00;;
19006;SDS011;9636;47.382;8.480;2022-12-07T09:17:05;5.50;;;4.00;;
19006;SDS011;9636;47.382;8.480;2022-12-07T09:19:32;4.57;;;3.67;;
19006;SDS011;9636;47.382;8.480;2022-12-07T09:21:59;6.90;;;4.00;;
19006;SDS011;9636;47.382;8.480;2022-12-07T09:24:26;4.83;;;3.73;;
19006;SDS011;9636;47.382;8.480;2022-12-07T09:26:53;5.43;;;3.90;;
19006;SDS011;9636;47.382;8.480;2022-12-07T09:29:22;5.23;;;4.03;;
19006;SDS011;9636;47.382;8.480;2022-12-07T09:31:50;4.43;;;3.67;;
19006;SDS011;9636;47.382;8.480;2022-12-07T09:34:17;5.17;;;4.17;;
19006;SDS011;9636;47.382;8.480;2022-12-07T09:36:45;5.73;;;4.20;;
19006;SDS011;9636;47.382;8.480;2022-12-07T09:39:12;5.73;;;3.63;;
19006;SDS011;9636;47.382;8.480;2022-12-07T09:41:39;5.03;;;3.90;;
19006;SDS011;9636;47.382;8.480;2022-12-07T09:44:10;4.50;;;3.70;;
19006;SDS011;9636;47.382;8.480;2022-12-07T09:46:40;3.87;;;3.47;;
19006;SDS011;9636;47.382;8.480;2022-12-07T09:49:09;5.37;;;4.27;;
19006;SDS011;9636;47.382;8.480;2022-12-07T09:51:38;5.30;;;3.77;;
19006;SDS011;9636;47.382;8.480;2022-12-07T09:54:05;5.07;;;3.90;;
19006;SDS011;9636;47.382;8.480;2022-12-07T09:56:32;4.90;;;3.53;;
19006;SDS011;9636;47.382;8.480;2022-12-07T09:59:00;4.77;;;3.57;;
19006;SDS011;9636;47.382;8.480;2022-12-07T10:01:29;5.20;;;4.03;;
19006;SDS011;9636;47.382;8.480;2022-12-07T10:04:01;5.77;;;3.70;;
19006;SDS011;9636;47.382;8.480;2022-12-07T10:06:29;5.60;;;4.00;;
19006;SDS011;9636;47.382;8.480;2022-12-07T10:08:56;5.13;;;3.60;;
19006;SDS011;9636;47.382;8.480;2022-12-07T10:11:23;5.80;;;3.93;;
19006;SDS011;9636;47.382;8.480;2022-12-07T10:13:51;4.83;;;3.73;;
19006;SDS011;9636;47.382;8.480;2022-12-07T10:16:35;4.70;;;3.83;;
19006;SDS011;9636;47.382;8.480;2022-12-07T10:19:18;5.27;;;3.80;;
19006;SDS011;9636;47.382;8.480;2022-12-07T10:24:31;4.90;;;4.00;;
19006;SDS011;9636;47.382;8.480;2022-12-07T10:26:58;6.10;;;3.87;;
19006;SDS011;9636;47.382;8.480;2022-12-07T10:29:28;5.60;;;3.93;;
19006;SDS011;9636;47.382;8.480;2022-12-07T10:31:56;5.10;;;3.87;;
19006;SDS011;9636;47.382;8.480;2022-12-07T10:34:26;4.87;;;4.10;;
19006;SDS011;9636;47.382;8.480;2022-12-07T10:37:06;4.33;;;3.60;;
19006;SDS011;9636;47.382;8.480;2022-12-07T10:39:40;4.50;;;3.80;;
19006;SDS011;9636;47.382;8.480;2022-12-07T10:42:09;5.50;;;4.10;;
19006;SDS011;9636;47.382;8.480;2022-12-07T10:44:42;5.57;;;4.00;;
19006;SDS011;9636;47.382;8.480;2022-12-07T10:47:20;4.07;;;3.60;;
19006;SDS011;9636;47.382;8.480;2022-12-07T10:50:10;4.77;;;3.73;;
19006;SDS011;9636;47.382;8.480;2022-12-07T10:52:43;5.77;;;4.03;;
19006;SDS011;9636;47.382;8.480;2022-12-07T10:55:16;5.90;;;3.63;;
19006;SDS011;9636;47.382;8.480;2022-12-07T10:57:47;4.63;;;3.67;;
19006;SDS011;9636;47.382;8.480;2022-12-07T11:00:19;4.93;;;3.87;;
19006;SDS011;9636;47.382;8.480;2022-12-07T11:05:31;6.23;;;4.43;;
19006;SDS011;9636;47.382;8.480;2022-12-07T11:08:04;4.67;;;4.00;;
19006;SDS011;9636;47.382;8.480;2022-12-07T11:10:35;5.70;;;4.00;;
19006;SDS011;9636;47.382;8.480;2022-12-07T11:13:11;5.90;;;4.40;;
19006;SDS011;9636;47.382;8.480;2022-12-07T11:15:45;5.53;;;4.20;;
19006;SDS011;9636;47.382;8.480;2022-12-07T11:18:18;6.77;;;4.87;;
19006;SDS011;9636;47.382;8.480;2022-12-07T11:20:51;4.70;;;4.07;;
19006;SDS011;9636;47.382;8.480;2022-12-07T11:23:21;6.13;;;4.40;;
19006;SDS011;9636;47.382;8.480;2022-12-07T11:25:53;5.13;;;4.07;;
19006;SDS011;9636;47.382;8.480;2022-12-07T11:28:28;5.67;;;4.33;;
19006;SDS011;9636;47.382;8.480;2022-12-07T11:31:03;6.60;;;4.30;;
19006;SDS011;9636;47.382;8.480;2022-12-07T11:33:33;6.03;;;4.07;;
19006;SDS011;9636;47.382;8.480;2022-12-07T11:36:09;4.73;;;3.83;;
19006;SDS011;9636;47.382;8.480;2022-12-07T11:38:41;5.80;;;4.37;;
19006;SDS011;9636;47.382;8.480;2022-12-07T11:41:09;4.87;;;3.87;;
19006;SDS011;9636;47.382;8.480;2022-12-07T11:43:44;5.33;;;4.10;;
19006;SDS011;9636;47.382;8.480;2022-12-07T11:46:17;5.00;;;4.20;;
19006;SDS011;9636;47.382;8.480;2022-12-07T11:48:45;4.97;;;3.80;;
19006;SDS011;9636;47.382;8.480;2022-12-07T11:51:15;12.35;;;9.20;;
19006;SDS011;9636;47.382;8.480;2022-12-07T11:53:46;12.00;;;7.20;;
19006;SDS011;9636;47.382;8.480;2022-12-07T11:56:15;9.60;;;7.07;;
19006;SDS011;9636;47.382;8.480;2022-12-07T11:58:45;9.53;;;6.83;;
19006;SDS011;9636;47.382;8.480;2022-12-07T12:01:15;11.90;;;7.50;;
19006;SDS011;9636;47.382;8.480;2022-12-07T12:03:47;9.43;;;6.53;;
19006;SDS011;9636;47.382;8.480;2022-12-07T12:06:17;9.33;;;6.83;;
19006;SDS011;9636;47.382;8.480;2022-12-07T12:08:46;10.30;;;6.90;;
19006;SDS011;9636;47.382;8.480;2022-12-07T12:11:19;6.97;;;6.03;;
19006;SDS011;9636;47.382;8.480;2022-12-07T12:13:55;9.27;;;6.53;;
19006;SDS011;9636;47.382;8.480;2022-12-07T12:19:15;7.60;;;6.00;;
19006;SDS011;9636;47.382;8.480;2022-12-07T12:21:46;8.27;;;6.07;;
19006;SDS011;9636;47.382;8.480;2022-12-07T12:24:15;7.27;;;5.83;;
19006;SDS011;9636;47.382;8.480;2022-12-07T12:26:48;9.13;;;5.67;;
19006;SDS011;9636;47.382;8.480;2022-12-07T12:29:20;7.13;;;5.23;;
19006;SDS011;9636;47.382;8.480;2022-12-07T12:31:48;8.70;;;6.00;;
19006;SDS011;9636;47.382;8.480;2022-12-07T12:34:38;8.40;;;5.70;;
19006;SDS011;9636;47.382;8.480;2022-12-07T12:37:17;7.07;;;5.40;;
19006;SDS011;9636;47.382;8.480;2022-12-07T12:42:48;6.03;;;5.40;;
19006;SDS011;9636;47.382;8.480;2022-12-07T12:45:20;6.93;;;5.10;;
19006;SDS011;9636;47.382;8.480;2022-12-07T12:50:27;5.53;;;4.70;;
19006;SDS011;9636;47.382;8.480;2022-12-07T12:53:01;6.70;;;5.07;;
19006;SDS011;9636;47.382;8.480;2022-12-07T13:03:58;6.00;;;4.23;;
19006;SDS011;9636;47.382;8.480;2022-12-07T13:06:32;5.47;;;4.63;;
19006;SDS011;9636;47.382;8.480;2022-12-07T13:09:04;5.20;;;4.17;;
19006;SDS011;9636;47.382;8.480;2022-12-07T13:11:43;6.13;;;4.40;;
19006;SDS011;9636;47.382;8.480;2022-12-07T13:16:59;5.37;;;4.27;;
19006;SDS011;9636;47.382;8.480;2022-12-07T13:22:40;8.77;;;3.90;;
19006;SDS011;9636;47.382;8.480;2022-12-07T13:25:10;5.03;;;4.33;;
19006;SDS011;9636;47.382;8.480;2022-12-07T13:27:38;5.20;;;4.10;;
19006;SDS011;9636;47.382;8.480;2022-12-07T13:30:09;5.67;;;4.03;;
19006;SDS011;9636;47.382;8.480;2022-12-07T13:32:40;4.47;;;4.07;;
19006;SDS011;9636;47.382;8.480;2022-12-07T13:37:49;5.13;;;4.43;;
19006;SDS011;9636;47.382;8.480;2022-12-07T13:40:19;5.80;;;4.40;;
19006;SDS011;9636;47.382;8.480;2022-12-07T13:42:47;5.33;;;4.03;;
19006;SDS011;9636;47.382;8.480;2022-12-07T13:45:20;4.67;;;3.73;;
19006;SDS011;9636;47.382;8.480;2022-12-07T13:48:08;4.90;;;3.97;;
19006;SDS011;9636;47.382;8.480;2022-12-07T13:50:37;4.33;;;3.93;;
19006;SDS011;9636;47.382;8.480;2022-12-07T13:53:07;5.13;;;3.57;;
19006;SDS011;9636;47.382;8.480;2022-12-07T13:55:39;4.90;;;4.13;;
19006;SDS011;9636;47.382;8.480;2022-12-07T13:58:10;5.60;;;3.67;;
19006;SDS011;9636;47.382;8.480;2022-12-07T14:00:39;3.97;;;3.40;;
19006;SDS011;9636;47.382;8.480;2022-12-07T14:03:22;5.40;;;3.43;;
19006;SDS011;9636;47.382;8.480;2022-12-07T14:06:03;5.13;;;4.03;;
19006;SDS011;9636;47.382;8.480;2022-12-07T14:08:30;4.40;;;3.70;;
19006;SDS011;9636;47.382;8.480;2022-12-07T14:10:59;5.10;;;4.07;;
19006;SDS011;9636;47.382;8.480;2022-12-07T14:13:28;4.50;;;3.93;;
19006;SDS011;9636;47.382;8.480;2022-12-07T14:15:57;4.00;;;3.60;;
19006;SDS011;9636;47.382;8.480;2022-12-07T14:18:26;4.07;;;3.57;;
19006;SDS011;9636;47.382;8.480;2022-12-07T14:21:02;4.40;;;3.60;;
19006;SDS011;9636;47.382;8.480;2022-12-07T14:23:29;4.77;;;3.60;;
19006;SDS011;9636;47.382;8.480;2022-12-07T14:26:04;4.90;;;3.57;;
19006;SDS011;9636;47.382;8.480;2022-12-07T14:28:32;3.70;;;3.40;;
19006;SDS011;9636;47.382;8.480;2022-12-07T14:31:00;5.03;;;3.73;;
19006;SDS011;9636;47.382;8.480;2022-12-07T14:33:28;4.40;;;3.60;;
19006;SDS011;9636;47.382;8.480;2022-12-07T14:35:55;3.77;;;3.33;;
19006;SDS011;9636;47.382;8.480;2022-12-07T14:38:25;4.70;;;3.57;;
19006;SDS011;9636;47.382;8.480;2022-12-07T14:40:52;3.30;;;3.00;;
19006;SDS011;9636;47.382;8.480;2022-12-07T14:43:41;3.53;;;3.20;;
19006;SDS011;9636;47.382;8.480;2022-12-07T14:46:08;3.87;;;3.40;;
19006;SDS011;9636;47.382;8.480;2022-12-07T14:48:36;3.83;;;3.30;;
19006;SDS011;9636;47.382;8.480;2022-12-07T14:51:03;4.47;;;3.70;;
19006;SDS011;9636;47.382;8.480;2022-12-07T14:53:31;4.30;;;3.50;;
19006;SDS011;9636;47.382;8.480;2022-12-07T14:56:00;3.93;;;3.30;;
19006;SDS011;9636;47.382;8.480;2022-12-07T14:58:30;4.53;;;3.60;;
19006;SDS011;9636;47.382;8.480;2022-12-07T15:00:58;4.10;;;3.40;;
19006;SDS011;9636;47.382;8.480;2022-12-07T15:03:26;3.73;;;3.23;;
19006;SDS011;9636;47.382;8.480;2022-12-07T15:05:53;4.20;;;3.60;;
19006;SDS011;9636;47.382;8.480;2022-12-07T15:08:20;4.80;;;3.67;;
19006;SDS011;9636;47.382;8.480;2022-12-07T15:10:47;4.10;;;3.60;;
19006;SDS011;9636;47.382;8.480;2022-12-07T15:13:14;4.57;;;3.60;;
19006;SDS011;9636;47.382;8.480;2022-12-07T15:16:01;4.23;;;3.50;;
19006;SDS011;9636;47.382;8.480;2022-12-07T15:18:28;3.53;;;3.20;;
19006;SDS011;9636;47.382;8.480;2022-12-07T15:20:55;3.63;;;3.30;;
19006;SDS011;9636;47.382;8.480;2022-12-07T15:23:22;4.63;;;3.83;;
19006;SDS011;9636;47.382;8.480;2022-12-07T15:25:49;4.23;;;3.40;;
19006;SDS011;9636;47.382;8.480;2022-12-07T15:28:16;3.50;;;3.20;;
19006;SDS011;9636;47.382;8.480;2022-12-07T15:30:43;3.77;;;3.13;;
19006;SDS011;9636;47.382;8.480;2022-12-07T15:33:12;3.50;;;3.00;;
19006;SDS011;9636;47.382;8.480;2022-12-07T15:35:39;4.50;;;3.43;;
19006;SDS011;9636;47.382;8.480;2022-12-07T15:38:07;4.13;;;2.93;;
19006;SDS011;9636;47.382;8.480;2022-12-07T15:40:34;4.13;;;3.47;;